This is the latest recevied weather packets stored in our database for station/object OK5TVR-5. If no packets are shown the sender has not sent any weather packets the latest 10 day(s).
| Time | Temp. | Humidity | Pressure | Rain* | Wind** | Luminosity | Snow |
|---|---|---|---|---|---|---|---|
| 1777747953 | 15° C | 49% | 1010.8 hPa | 0 mm | - | - | - |
| 1777747051 | 16.11° C | 44% | 1010.7 hPa | 0 mm | - | - | - |
| 1777745252 | 18.89° C | 47% | 1010.4 hPa | 0 mm | - | - | - |
| 1777744352 | 20.56° C | 47% | 1010.2 hPa | 0 mm | - | - | - |
| 1777743451 | 22.22° C | 41% | 1010 hPa | 0 mm | - | - | - |
| 1777742549 | 24.44° C | 30% | 1009.7 hPa | 0 mm | - | - | - |
| 1777742549 | 24.44° C | 30% | 1009.7 hPa | 0 mm | - | - | - |
| 1777741650 | 25.56° C | 29% | 1009.5 hPa | 0 mm | - | - | - |
| 1777741650 | 25.56° C | 29% | 1009.5 hPa | 0 mm | - | - | - |
| 1777740749 | 26.67° C | 24% | 1009.4 hPa | 0 mm | - | - | - |
| 1777740749 | 26.67° C | 24% | 1009.4 hPa | 0 mm | - | - | - |
| 1777739847 | 28.33° C | 17% | 1009.2 hPa | 0 mm | - | - | - |
| 1777739847 | 28.33° C | 17% | 1009.2 hPa | 0 mm | - | - | - |
| 1777739847 | 28.33° C | 17% | 1009.2 hPa | 0 mm | - | - | - |
| 1777738947 | 28.33° C | 22% | 1009.2 hPa | 0 mm | - | - | - |
| 1777738947 | 28.33° C | 22% | 1009.2 hPa | 0 mm | - | - | - |
| 1777738947 | 28.33° C | 22% | 1009.2 hPa | 0 mm | - | - | - |
| 1777738045 | 28.33° C | 19% | 1009.2 hPa | 0 mm | - | - | - |
| 1777738045 | 28.33° C | 19% | 1009.2 hPa | 0 mm | - | - | - |
| 1777738045 | 28.33° C | 19% | 1009.2 hPa | 0 mm | - | - | - |
| 1777737146 | 28.89° C | 15% | 1009.2 hPa | 0 mm | - | - | - |
| 1777737145 | 28.89° C | 15% | 1009.2 hPa | 0 mm | - | - | - |
| 1777737145 | 28.89° C | 15% | 1009.2 hPa | 0 mm | - | - | - |
| 1777736245 | 28.33° C | 14% | 1010.3 hPa | 0 mm | - | - | - |
| 1777736245 | 28.33° C | 14% | 1010.3 hPa | 0 mm | - | - | - |
* Rain latest hour (hover to see other rain measurements)
** Current wind speed in m/s (hover to see current wind gust speed)